createdAt,value
2023-01-20T00:00:14.335Z,12.20
2023-01-20T00:03:00.787Z,16.30
2023-01-20T00:05:51.519Z,13.33
2023-01-20T00:08:38.656Z,10.87
2023-01-20T00:11:25.573Z,11.87
2023-01-20T00:14:12.010Z,8.00
2023-01-20T00:17:00.121Z,11.57
2023-01-20T00:19:46.792Z,13.43
2023-01-20T00:22:34.140Z,12.27
2023-01-20T00:25:20.942Z,10.83
2023-01-20T00:28:07.640Z,10.93
2023-01-20T00:30:54.304Z,11.97
2023-01-20T00:33:41.356Z,9.90
2023-01-20T00:36:31.333Z,10.30
2023-01-20T00:39:17.808Z,11.43
2023-01-20T00:42:04.016Z,15.03
2023-01-20T00:44:50.373Z,13.53
2023-01-20T00:47:37.068Z,12.77
2023-01-20T00:50:23.212Z,10.13
2023-01-20T00:53:09.757Z,8.53
2023-01-20T00:55:56.032Z,11.63
2023-01-20T00:58:44.320Z,8.70
2023-01-20T01:01:30.871Z,12.70
2023-01-20T01:04:17.436Z,10.17
2023-01-20T01:07:03.961Z,10.87
2023-01-20T01:09:50.348Z,8.97
2023-01-20T01:12:37.025Z,9.73
2023-01-20T01:15:23.617Z,10.80
2023-01-20T01:18:09.906Z,16.30
2023-01-20T01:20:56.590Z,9.67
2023-01-20T01:23:43.802Z,10.53
2023-01-20T01:26:30.329Z,10.33
2023-01-20T01:29:16.668Z,10.00
2023-01-20T01:32:03.080Z,13.30
2023-01-20T01:34:49.638Z,10.90
2023-01-20T01:37:36.315Z,7.87
2023-01-20T01:40:22.727Z,8.73
2023-01-20T01:43:31.693Z,10.67
2023-01-20T01:46:17.992Z,10.63
2023-01-20T01:49:28.921Z,10.97
2023-01-20T01:52:15.826Z,10.43
2023-01-20T01:55:03.652Z,10.03
2023-01-20T01:57:51.612Z,9.23
2023-01-20T02:00:38.991Z,12.60
2023-01-20T02:03:31.707Z,9.77
2023-01-20T02:06:18.419Z,11.27
2023-01-20T02:09:05.204Z,9.03
2023-01-20T02:11:59.838Z,10.60
2023-01-20T02:14:50.583Z,9.43
2023-01-20T02:17:53.789Z,13.67
2023-01-20T02:20:50.063Z,11.90
2023-01-20T02:23:52.086Z,11.57
2023-01-20T02:26:57.458Z,9.13
2023-01-20T02:30:01.861Z,11.57
2023-01-20T02:32:57.631Z,9.80
2023-01-20T02:35:51.866Z,14.90
2023-01-20T02:38:56.355Z,9.87
2023-01-20T02:42:12.154Z,9.23
2023-01-20T02:45:15.359Z,11.47
2023-01-20T02:48:36.810Z,8.57
2023-01-20T02:51:30.471Z,12.40
2023-01-20T02:54:18.595Z,10.43
2023-01-20T02:57:08.481Z,9.00
2023-01-20T03:00:07.775Z,9.63
2023-01-20T03:02:57.827Z,9.63
2023-01-20T03:05:51.781Z,7.33
2023-01-20T03:08:40.832Z,11.47
2023-01-20T03:11:31.536Z,9.90
2023-01-20T03:14:18.197Z,10.17
2023-01-20T03:17:04.703Z,12.77
2023-01-20T03:19:51.024Z,10.10
2023-01-20T03:22:37.206Z,12.43
2023-01-20T03:25:23.951Z,10.17
2023-01-20T03:28:10.056Z,9.47
2023-01-20T03:30:58.455Z,11.37
2023-01-20T03:33:47.195Z,11.67
2023-01-20T03:36:34.227Z,11.07
2023-01-20T03:39:21.435Z,10.40
2023-01-20T03:42:14.906Z,10.27
2023-01-20T03:45:50.136Z,12.83
2023-01-20T03:48:49.900Z,12.43
2023-01-20T03:51:54.908Z,14.37
2023-01-20T03:54:48.659Z,10.33
2023-01-20T03:57:41.400Z,11.73
2023-01-20T04:00:29.649Z,10.33
2023-01-20T04:03:25.852Z,7.83
2023-01-20T04:06:15.153Z,11.63
2023-01-20T04:09:08.015Z,9.53
2023-01-20T04:11:54.410Z,10.03
2023-01-20T04:14:40.850Z,7.60
2023-01-20T04:17:29.075Z,11.97
2023-01-20T04:20:15.865Z,7.53
2023-01-20T04:23:02.711Z,10.90
2023-01-20T04:25:49.272Z,9.03
2023-01-20T04:28:35.765Z,9.23
2023-01-20T04:31:30.504Z,11.07
2023-01-20T04:34:17.952Z,12.27
2023-01-20T04:37:04.658Z,12.37
2023-01-20T04:39:54.133Z,14.83
2023-01-20T04:42:40.397Z,12.57
2023-01-20T04:45:27.087Z,17.53
2023-01-20T04:48:13.267Z,17.17
2023-01-20T04:51:15.180Z,17.13
2023-01-20T04:54:01.490Z,14.17
2023-01-20T04:56:49.039Z,12.70
2023-01-20T04:59:35.396Z,16.53
2023-01-20T05:02:21.742Z,13.50
2023-01-20T05:05:09.019Z,16.70
2023-01-20T05:07:57.016Z,13.50
2023-01-20T05:10:43.544Z,14.30
2023-01-20T05:13:29.899Z,12.90
2023-01-20T05:16:21.765Z,19.37
2023-01-20T05:19:08.224Z,18.77
2023-01-20T05:21:57.066Z,13.33
2023-01-20T05:24:43.316Z,18.03
2023-01-20T05:27:29.617Z,13.10
2023-01-20T05:30:16.388Z,17.10
2023-01-20T05:33:02.534Z,18.00
2023-01-20T05:35:48.791Z,18.67
2023-01-20T05:38:35.574Z,12.27
2023-01-20T05:41:21.924Z,13.03
2023-01-20T05:44:09.004Z,14.60
2023-01-20T05:46:55.749Z,9.90
2023-01-20T05:49:42.091Z,9.43
2023-01-20T05:52:28.427Z,11.67
2023-01-20T05:55:15.288Z,13.20
2023-01-20T05:58:02.895Z,12.73
2023-01-20T06:00:49.138Z,11.53
2023-01-20T06:03:35.542Z,15.30
2023-01-20T06:06:22.170Z,13.53
2023-01-20T06:09:10.876Z,14.30
2023-01-20T06:11:57.221Z,12.10
2023-01-20T06:14:44.058Z,10.23
2023-01-20T06:17:30.403Z,9.70
2023-01-20T06:20:17.252Z,9.93
2023-01-20T06:23:03.772Z,10.97
2023-01-20T06:25:57.508Z,12.50
2023-01-20T06:28:44.236Z,13.87
2023-01-20T06:31:30.749Z,13.27
2023-01-20T06:34:17.405Z,9.00
2023-01-20T06:37:04.074Z,8.80
2023-01-20T06:39:50.600Z,16.47
2023-01-20T06:42:36.959Z,12.17
2023-01-20T06:45:24.377Z,10.07
2023-01-20T06:48:10.695Z,9.60
2023-01-20T06:51:02.031Z,11.47
2023-01-20T06:53:48.507Z,15.20
2023-01-20T06:56:35.027Z,13.47
2023-01-20T06:59:21.396Z,12.50
2023-01-20T07:02:12.010Z,10.93
2023-01-20T07:04:59.989Z,11.17
2023-01-20T07:07:46.473Z,11.73
2023-01-20T07:10:32.747Z,11.30
2023-01-20T07:13:19.182Z,11.90
2023-01-20T07:16:05.657Z,10.07
2023-01-20T07:18:53.659Z,14.13
2023-01-20T07:21:39.880Z,10.13
2023-01-20T07:24:26.269Z,9.47
2023-01-20T07:27:15.018Z,10.63
2023-01-20T07:30:01.526Z,15.83
2023-01-20T07:32:48.051Z,11.97
2023-01-20T07:35:34.542Z,15.67
2023-01-20T07:38:20.902Z,11.53
2023-01-20T07:41:11.843Z,11.17
2023-01-20T07:43:58.559Z,18.20
2023-01-20T07:46:45.247Z,11.57
2023-01-20T07:49:31.504Z,13.43
2023-01-20T07:52:18.070Z,18.00
2023-01-20T07:55:05.129Z,13.40
2023-01-20T07:57:51.804Z,15.03
2023-01-20T08:00:38.401Z,16.73
2023-01-20T08:03:27.350Z,18.00
2023-01-20T08:06:15.907Z,17.93
2023-01-20T08:09:02.778Z,21.03
2023-01-20T08:11:49.266Z,25.03
2023-01-20T08:14:37.794Z,20.13
2023-01-20T08:17:24.596Z,21.57
2023-01-20T08:20:11.321Z,15.50
2023-01-20T08:22:57.551Z,15.27
2023-01-20T08:25:44.480Z,17.77
2023-01-20T08:28:31.676Z,11.63
2023-01-20T08:31:21.026Z,13.43
2023-01-20T08:34:07.525Z,11.77
2023-01-20T08:36:54.125Z,13.60
2023-01-20T08:39:40.568Z,16.17
2023-01-20T08:42:27.028Z,12.87
2023-01-20T08:45:14.278Z,12.73
2023-01-20T08:48:01.419Z,13.73
2023-01-20T08:50:47.839Z,12.27
2023-01-20T08:53:34.627Z,14.57
2023-01-20T08:56:21.707Z,12.27
2023-01-20T08:59:07.909Z,12.93
2023-01-20T09:01:54.516Z,16.37
2023-01-20T09:04:41.103Z,11.50
2023-01-20T09:07:27.635Z,14.07
2023-01-20T09:10:14.299Z,14.47
2023-01-20T09:13:00.803Z,12.27
2023-01-20T09:15:52.881Z,17.17
2023-01-20T09:18:39.330Z,14.90
2023-01-20T09:21:25.575Z,14.83
2023-01-20T09:24:12.107Z,15.87
2023-01-20T09:26:58.565Z,13.80
2023-01-20T09:29:44.922Z,14.50
2023-01-20T09:32:32.721Z,16.50
2023-01-20T09:35:19.307Z,13.90
2023-01-20T09:38:25.045Z,14.53
2023-01-20T09:41:37.369Z,11.97
2023-01-20T09:44:34.057Z,11.20
2023-01-20T09:47:31.612Z,14.27
2023-01-20T09:50:49.211Z,14.83
2023-01-20T09:53:56.792Z,8.23
2023-01-20T09:56:47.767Z,12.00
2023-01-20T09:59:46.435Z,12.73
2023-01-20T10:02:35.878Z,12.40
2023-01-20T10:05:32.836Z,10.40
2023-01-20T10:08:34.494Z,10.97
2023-01-20T10:11:23.939Z,10.77
2023-01-20T10:14:16.353Z,10.83
2023-01-20T10:17:20.493Z,12.97
2023-01-20T10:20:36.969Z,8.23
2023-01-20T10:23:45.034Z,10.57
2023-01-20T10:26:49.065Z,11.77
2023-01-20T10:29:38.539Z,14.03
2023-01-20T10:32:41.005Z,11.43
2023-01-20T10:35:31.261Z,9.33
2023-01-20T10:38:31.857Z,15.97
2023-01-20T10:41:50.431Z,10.43
2023-01-20T10:44:36.919Z,9.57
2023-01-20T10:47:44.158Z,9.70
2023-01-20T10:50:49.411Z,9.27
2023-01-20T10:53:47.461Z,8.57
2023-01-20T10:56:34.019Z,8.03
2023-01-20T10:59:46.800Z,8.53
2023-01-20T11:02:37.912Z,9.63
2023-01-20T11:05:38.127Z,11.20
2023-01-20T11:08:28.075Z,6.73
2023-01-20T11:11:23.575Z,9.43
2023-01-20T11:14:10.142Z,10.63
2023-01-20T11:17:02.046Z,6.93
2023-01-20T11:19:51.454Z,10.00
2023-01-20T11:22:38.262Z,6.37
2023-01-20T11:25:27.016Z,6.90
2023-01-20T11:28:19.484Z,12.20
2023-01-20T11:31:06.122Z,7.27
2023-01-20T11:34:01.650Z,7.33
2023-01-20T11:37:11.658Z,6.57
2023-01-20T11:40:04.473Z,5.27
2023-01-20T11:42:52.465Z,7.83
2023-01-20T11:45:39.047Z,9.93
2023-01-20T11:48:25.342Z,6.63
2023-01-20T11:51:24.799Z,8.97
2023-01-20T11:54:17.222Z,6.10
2023-01-20T11:57:07.684Z,9.07
2023-01-20T11:59:54.019Z,6.83
2023-01-20T12:02:41.692Z,7.77
2023-01-20T12:05:55.995Z,7.47
2023-01-20T12:08:50.727Z,8.57
2023-01-20T12:11:52.082Z,6.57
2023-01-20T12:14:47.146Z,6.50
2023-01-20T12:17:58.727Z,6.80
2023-01-20T12:20:59.140Z,5.93
2023-01-20T12:24:08.454Z,5.53
2023-01-20T12:26:54.945Z,6.93
2023-01-20T12:29:45.703Z,4.73
2023-01-20T12:32:33.289Z,5.77
2023-01-20T12:35:24.584Z,5.63
2023-01-20T12:38:18.968Z,8.03
2023-01-20T12:41:13.032Z,5.27
2023-01-20T12:44:27.385Z,5.07
2023-01-20T12:47:38.968Z,5.47
2023-01-20T12:51:02.518Z,5.73
2023-01-20T12:54:00.891Z,4.47
2023-01-20T12:57:09.274Z,3.70
2023-01-20T13:00:23.619Z,3.83
2023-01-20T13:03:49.898Z,4.53
2023-01-20T13:07:01.121Z,4.33
2023-01-20T13:10:28.874Z,4.47
2023-01-20T13:13:30.662Z,4.70
2023-01-20T13:16:29.472Z,5.73
2023-01-20T13:19:19.281Z,2.40
2023-01-20T13:22:16.427Z,3.33
2023-01-20T13:25:04.840Z,6.87
2023-01-20T13:27:54.385Z,30.63
2023-01-20T13:30:51.640Z,4.27
2023-01-20T13:33:40.732Z,4.90
2023-01-20T13:36:27.473Z,4.57
2023-01-20T13:39:45.183Z,2.97
2023-01-20T13:42:37.787Z,5.27
2023-01-20T13:45:26.334Z,3.80
2023-01-20T13:48:23.571Z,8.73
2023-01-20T13:51:30.109Z,3.07
2023-01-20T13:54:25.413Z,3.20
2023-01-20T13:57:26.159Z,4.00
2023-01-20T14:00:13.612Z,4.20
2023-01-20T14:03:17.418Z,2.77
2023-01-20T14:06:20.227Z,2.13
2023-01-20T14:09:11.685Z,3.40
2023-01-20T14:11:58.784Z,4.00
2023-01-20T14:14:49.267Z,5.23
2023-01-20T14:17:36.582Z,3.57
2023-01-20T14:20:25.487Z,4.27
2023-01-20T14:23:34.315Z,2.67
2023-01-20T14:26:25.888Z,3.73
2023-01-20T14:29:20.107Z,2.10
2023-01-20T14:32:28.561Z,2.73
2023-01-20T14:35:21.083Z,2.10
2023-01-20T14:38:18.553Z,2.20
2023-01-20T14:41:05.561Z,2.57
2023-01-20T14:43:52.198Z,2.97
2023-01-20T14:46:39.843Z,2.50
2023-01-20T14:49:39.592Z,2.80
2023-01-20T14:52:29.110Z,3.10
2023-01-20T14:55:36.345Z,4.07
2023-01-20T14:58:24.482Z,4.97
2023-01-20T15:01:22.202Z,18.17
2023-01-20T15:04:12.776Z,10.00
2023-01-20T15:06:59.841Z,20.10
2023-01-20T15:10:17.372Z,6.50
2023-01-20T15:13:04.708Z,3.77
2023-01-20T15:15:51.581Z,5.00
2023-01-20T15:18:37.900Z,4.33
2023-01-20T15:21:27.056Z,7.80
2023-01-20T15:24:17.705Z,6.97
2023-01-20T15:27:30.484Z,5.47
2023-01-20T15:30:24.194Z,3.50
2023-01-20T15:33:10.762Z,7.37
2023-01-20T15:36:00.202Z,6.90
2023-01-20T15:38:47.536Z,4.57
2023-01-20T15:41:33.842Z,7.97
2023-01-20T15:44:20.907Z,5.10
2023-01-20T15:47:25.877Z,4.37
2023-01-20T15:50:31.896Z,4.03
2023-01-20T15:53:18.403Z,4.13
2023-01-20T15:56:05.040Z,6.50
2023-01-20T15:58:52.322Z,4.60
2023-01-20T16:01:38.721Z,6.60
2023-01-20T16:04:25.262Z,7.57
2023-01-20T16:07:18.115Z,5.03
2023-01-20T16:10:05.081Z,6.23
2023-01-20T16:12:51.744Z,4.60
2023-01-20T16:15:39.908Z,7.07
2023-01-20T16:18:26.529Z,6.90
2023-01-20T16:21:18.982Z,5.53
2023-01-20T16:24:06.123Z,6.20
2023-01-20T16:26:52.873Z,6.10
2023-01-20T16:29:39.110Z,8.23
2023-01-20T16:32:25.341Z,6.73
2023-01-20T16:35:17.108Z,11.13
2023-01-20T16:38:04.361Z,5.97
2023-01-20T16:40:53.994Z,5.33
2023-01-20T16:43:43.635Z,8.27
2023-01-20T16:46:32.812Z,11.30
2023-01-20T16:49:22.676Z,11.97
2023-01-20T16:52:10.783Z,9.13
2023-01-20T16:54:56.933Z,10.23
2023-01-20T16:57:43.328Z,12.47
2023-01-20T17:00:30.697Z,9.60
2023-01-20T17:03:16.882Z,9.87
2023-01-20T17:06:17.979Z,9.93
2023-01-20T17:09:05.543Z,7.73
2023-01-20T17:11:52.029Z,10.30
2023-01-20T17:14:38.368Z,11.73
2023-01-20T17:17:24.627Z,10.33
2023-01-20T17:20:11.490Z,8.40
2023-01-20T17:22:58.178Z,8.03
2023-01-20T17:25:44.513Z,19.00
2023-01-20T17:28:30.887Z,9.03
2023-01-20T17:31:17.037Z,7.87
2023-01-20T17:34:04.960Z,21.93
2023-01-20T17:36:51.201Z,26.37
2023-01-20T17:39:37.477Z,30.23
2023-01-20T17:42:24.012Z,30.97
2023-01-20T17:45:11.056Z,29.63
2023-01-20T17:47:57.488Z,18.17
2023-01-20T17:50:44.063Z,17.20
2023-01-20T17:53:32.036Z,19.20
2023-01-20T17:56:21.459Z,15.63
2023-01-20T17:59:08.549Z,21.77
2023-01-20T18:01:55.377Z,13.30
2023-01-20T18:04:41.944Z,11.93
2023-01-20T18:07:28.177Z,14.53
2023-01-20T18:10:14.655Z,13.30
2023-01-20T18:13:01.085Z,12.10
2023-01-20T18:15:47.117Z,9.90
2023-01-20T18:18:33.681Z,10.77
2023-01-20T18:21:22.396Z,10.93
2023-01-20T18:24:10.706Z,10.40
2023-01-20T18:26:57.977Z,10.63
2023-01-20T18:29:45.144Z,15.60
2023-01-20T18:32:31.982Z,19.53
2023-01-20T18:35:19.175Z,17.40
2023-01-20T18:38:05.346Z,18.20
2023-01-20T18:40:51.775Z,16.53
2023-01-20T18:43:39.040Z,18.43
2023-01-20T18:46:26.703Z,17.83
2023-01-20T18:49:14.139Z,20.60
2023-01-20T18:52:00.329Z,17.50
2023-01-20T18:54:46.648Z,12.33
2023-01-20T18:57:33.113Z,12.97
2023-01-20T19:00:19.705Z,14.97
2023-01-20T19:03:06.033Z,15.60
2023-01-20T19:05:52.228Z,14.00
2023-01-20T19:08:40.303Z,12.50
2023-01-20T19:11:32.245Z,12.10
2023-01-20T19:14:18.469Z,14.10
2023-01-20T19:17:05.029Z,14.10
2023-01-20T19:19:51.334Z,13.57
2023-01-20T19:22:37.696Z,14.47
2023-01-20T19:25:29.533Z,14.43
2023-01-20T19:28:16.309Z,20.57
2023-01-20T19:31:07.864Z,15.63
2023-01-20T19:33:54.170Z,12.80
2023-01-20T19:36:40.968Z,16.97
2023-01-20T19:39:27.636Z,17.13
2023-01-20T19:42:14.334Z,17.93
2023-01-20T19:45:01.004Z,16.83
2023-01-20T19:47:47.721Z,14.70
2023-01-20T19:50:34.374Z,16.73
2023-01-20T19:53:20.943Z,17.57
2023-01-20T19:56:12.691Z,15.67
2023-01-20T19:59:00.802Z,14.20
2023-01-20T20:01:47.395Z,14.13
2023-01-20T20:04:33.921Z,16.20
2023-01-20T20:07:20.673Z,13.40
2023-01-20T20:10:06.924Z,22.57
2023-01-20T20:12:53.121Z,17.47
2023-01-20T20:15:39.580Z,16.90
2023-01-20T20:18:26.935Z,15.83
2023-01-20T20:21:13.654Z,13.60
2023-01-20T20:24:01.369Z,14.93
2023-01-20T20:26:48.168Z,15.83
2023-01-20T20:29:34.858Z,15.40
2023-01-20T20:32:21.122Z,14.50
2023-01-20T20:35:07.713Z,12.30
2023-01-20T20:37:54.052Z,9.43
2023-01-20T20:40:40.441Z,11.73
2023-01-20T20:43:28.030Z,10.30
2023-01-20T20:46:16.230Z,11.20
2023-01-20T20:49:02.852Z,10.10
2023-01-20T20:51:49.177Z,13.07
2023-01-20T20:54:35.547Z,12.93
2023-01-20T20:57:21.962Z,11.07
2023-01-20T21:00:09.527Z,10.40
2023-01-20T21:02:56.559Z,15.33
2023-01-20T21:05:48.957Z,14.60
2023-01-20T21:08:35.440Z,13.37
2023-01-20T21:11:24.058Z,14.43
2023-01-20T21:14:10.675Z,15.27
2023-01-20T21:16:57.193Z,13.30
2023-01-20T21:19:43.404Z,11.63
2023-01-20T21:22:30.159Z,11.07
2023-01-20T21:25:18.114Z,13.17
2023-01-20T21:28:05.015Z,13.17
2023-01-20T21:30:51.293Z,11.03
2023-01-20T21:33:39.064Z,9.83
2023-01-20T21:36:26.839Z,12.17
2023-01-20T21:39:15.734Z,12.90
2023-01-20T21:42:02.351Z,16.40
2023-01-20T21:44:49.415Z,14.77
2023-01-20T21:47:36.032Z,12.33
2023-01-20T21:50:41.288Z,14.70
2023-01-20T21:53:28.022Z,15.77
2023-01-20T21:56:18.137Z,13.30
2023-01-20T21:59:04.904Z,14.27
2023-01-20T22:01:52.087Z,14.70
2023-01-20T22:04:39.944Z,13.17
2023-01-20T22:07:26.243Z,12.87
2023-01-20T22:10:12.824Z,15.50
2023-01-20T22:12:59.494Z,13.57
2023-01-20T22:15:46.027Z,11.13
2023-01-20T22:18:32.917Z,11.57
2023-01-20T22:21:20.727Z,17.40
2023-01-20T22:24:07.409Z,11.67
2023-01-20T22:26:53.742Z,11.33
2023-01-20T22:29:40.070Z,13.10
2023-01-20T22:32:27.025Z,11.53
2023-01-20T22:35:13.322Z,11.20
2023-01-20T22:37:59.956Z,17.07
2023-01-20T22:40:46.481Z,16.50
2023-01-20T22:43:35.089Z,13.47
2023-01-20T22:46:23.703Z,11.53
2023-01-20T22:49:11.529Z,12.50
2023-01-20T22:51:57.866Z,13.10
2023-01-20T22:54:44.068Z,11.07
2023-01-20T22:57:30.619Z,12.20
2023-01-20T23:00:17.608Z,14.53
2023-01-20T23:03:04.463Z,14.23
2023-01-20T23:05:58.866Z,16.50
2023-01-20T23:08:45.315Z,17.07
2023-01-20T23:11:32.501Z,15.30
2023-01-20T23:14:38.929Z,20.13
2023-01-20T23:17:30.901Z,10.77
2023-01-20T23:20:17.784Z,15.33
2023-01-20T23:23:05.361Z,15.80
2023-01-20T23:25:51.962Z,13.70
2023-01-20T23:28:38.390Z,16.17
2023-01-20T23:31:28.365Z,15.00
2023-01-20T23:34:14.962Z,12.03
2023-01-20T23:37:01.083Z,12.60
2023-01-20T23:39:47.337Z,13.97
2023-01-20T23:42:33.578Z,16.50
2023-01-20T23:45:19.921Z,13.67
2023-01-20T23:48:06.364Z,18.60
2023-01-20T23:50:53.335Z,13.83
2023-01-20T23:53:43.217Z,14.23
2023-01-20T23:56:29.849Z,15.67
2023-01-20T23:59:16.402Z,12.43
